RYR1501 EYVI-ENGM
Flight info
| Callsign | RYR1501 |
|---|---|
| Flight time | 1h 35m |
| Altitude | 32000 |
| Route | ELEKA DCT ASKOR DCT EBURI N623 ESEBA |
| Aircraft | B738/M-SDE2E3FGHIRWXY/LB1 |
Departure
| Time | 2026-04-30 18:23 |
|---|---|
| Airport | Vilnius International Airport (EYVI) |
Arrival
| Time | 2026-04-30 19:58 |
|---|---|
| Airport | Oslo-Gardermoen International Airport (ENGM) |
| Time | Latitude | Longitude | Altitude | Speed | Heading |
|---|---|---|---|---|---|
| 2026-04-30 18:00 | 54.64241 | 25.28119 | 626 ft | 0 kts | 0° |
| 2026-04-30 18:15 | 54.64219 | 25.28122 | 626 ft | 2 kts | 342° |
| 2026-04-30 18:16 | 54.64190 | 25.28134 | 625 ft | 2 kts | 347° |
| 2026-04-30 18:16 | 54.64159 | 25.28146 | 625 ft | 2 kts | 347° |
| 2026-04-30 18:17 | 54.64144 | 25.28151 | 625 ft | 2 kts | 348° |
| 2026-04-30 18:17 | 54.64130 | 25.28157 | 624 ft | 2 kts | 347° |
| 2026-04-30 18:17 | 54.64126 | 25.28158 | 624 ft | 0 kts | 347° |
| 2026-04-30 18:19 | 54.64156 | 25.28154 | 625 ft | 4 kts | 22° |
| 2026-04-30 18:20 | 54.64170 | 25.28223 | 626 ft | 12 kts | 80° |
| 2026-04-30 18:20 | 54.64143 | 25.28327 | 625 ft | 9 kts | 171° |
| 2026-04-30 18:20 | 54.64114 | 25.28384 | 626 ft | 5 kts | 95° |
| 2026-04-30 18:20 | 54.64113 | 25.28502 | 628 ft | 14 kts | 89° |
| 2026-04-30 18:21 | 54.64115 | 25.28700 | 631 ft | 15 kts | 83° |
| 2026-04-30 18:21 | 54.64184 | 25.28811 | 633 ft | 16 kts | 20° |
| 2026-04-30 18:21 | 54.64304 | 25.28890 | 636 ft | 18 kts | 22° |
| 2026-04-30 18:21 | 54.64408 | 25.28964 | 639 ft | 14 kts | 22° |
| 2026-04-30 18:22 | 54.64482 | 25.29017 | 639 ft | 10 kts | 22° |
| 2026-04-30 18:22 | 54.64440 | 25.29279 | 639 ft | 12 kts | 160° |
| 2026-04-30 18:22 | 54.64351 | 25.29230 | 639 ft | 25 kts | 202° |
| 2026-04-30 18:23 | 54.63936 | 25.28940 | 629 ft | 102 kts | 201° |
| 2026-04-30 18:23 | 54.63065 | 25.28333 | 593 ft | 164 kts | 201° |
| 2026-04-30 18:23 | 54.61908 | 25.27532 | 966 ft | 183 kts | 202° |
| 2026-04-30 18:23 | 54.60773 | 25.26724 | 1754 ft | 181 kts | 202° |
| 2026-04-30 18:24 | 54.58252 | 25.24961 | 2554 ft | 219 kts | 201° |
| 2026-04-30 18:24 | 54.56819 | 25.24008 | 3123 ft | 231 kts | 201° |
| 2026-04-30 18:24 | 54.55312 | 25.22736 | 3578 ft | 249 kts | 219° |
| 2026-04-30 18:25 | 54.54295 | 25.20349 | 4220 ft | 257 kts | 254° |
| 2026-04-30 18:25 | 54.55125 | 25.14576 | 5808 ft | 261 kts | 304° |
| 2026-04-30 18:25 | 54.56199 | 25.12071 | 6535 ft | 265 kts | 307° |
| 2026-04-30 18:26 | 54.58499 | 25.06996 | 8033 ft | 272 kts | 307° |
| 2026-04-30 18:26 | 54.59661 | 25.04441 | 8744 ft | 275 kts | 307° |
| 2026-04-30 18:26 | 54.60837 | 25.01849 | 9428 ft | 279 kts | 307° |
| 2026-04-30 18:27 | 54.63250 | 24.96525 | 10635 ft | 292 kts | 306° |
| 2026-04-30 18:27 | 54.64551 | 24.93645 | 10725 ft | 316 kts | 306° |
| 2026-04-30 18:28 | 54.67355 | 24.87431 | 11667 ft | 336 kts | 306° |
| 2026-04-30 18:28 | 54.68798 | 24.84231 | 12276 ft | 340 kts | 306° |
| 2026-04-30 18:28 | 54.71981 | 24.78114 | 13546 ft | 348 kts | 320° |
| 2026-04-30 18:29 | 54.73595 | 24.76014 | 14118 ft | 349 kts | 322° |
| 2026-04-30 18:29 | 54.79607 | 24.68542 | 15312 ft | 362 kts | 323° |
| 2026-04-30 18:30 | 54.82954 | 24.64385 | 15320 ft | 353 kts | 323° |
| 2026-04-30 18:30 | 54.87628 | 24.58562 | 15318 ft | 355 kts | 323° |
| 2026-04-30 18:31 | 54.89630 | 24.56063 | 15317 ft | 355 kts | 322° |
| 2026-04-30 18:31 | 54.93637 | 24.51052 | 15317 ft | 355 kts | 322° |
| 2026-04-30 18:32 | 54.97629 | 24.46048 | 15317 ft | 355 kts | 322° |
| 2026-04-30 18:32 | 54.99636 | 24.43527 | 15317 ft | 355 kts | 322° |
| 2026-04-30 18:32 | 55.03630 | 24.38501 | 15317 ft | 355 kts | 322° |
| 2026-04-30 18:33 | 55.05648 | 24.35956 | 15317 ft | 355 kts | 322° |
| 2026-04-30 18:33 | 55.09647 | 24.30905 | 15317 ft | 355 kts | 321° |
| 2026-04-30 18:33 | 55.11657 | 24.28362 | 15317 ft | 355 kts | 321° |
| 2026-04-30 18:34 | 55.13645 | 24.25843 | 15317 ft | 355 kts | 321° |
| 2026-04-30 18:34 | 55.17637 | 24.20775 | 15317 ft | 355 kts | 321° |
| 2026-04-30 18:34 | 55.19629 | 24.18242 | 15317 ft | 355 kts | 321° |
| 2026-04-30 18:35 | 55.21629 | 24.15696 | 15317 ft | 355 kts | 321° |
| 2026-04-30 18:35 | 55.23626 | 24.13149 | 15317 ft | 355 kts | 321° |
| 2026-04-30 18:35 | 55.25608 | 24.10618 | 15317 ft | 355 kts | 321° |
| 2026-04-30 18:36 | 55.29616 | 24.05491 | 15317 ft | 355 kts | 321° |
| 2026-04-30 18:36 | 55.31577 | 24.02978 | 15317 ft | 355 kts | 321° |
| 2026-04-30 18:36 | 55.35567 | 23.97854 | 15317 ft | 355 kts | 321° |
| 2026-04-30 18:37 | 55.37558 | 23.95293 | 15317 ft | 355 kts | 321° |
| 2026-04-30 18:37 | 55.39549 | 23.92728 | 15317 ft | 355 kts | 321° |
| 2026-04-30 18:37 | 55.41527 | 23.90177 | 15317 ft | 355 kts | 321° |
| 2026-04-30 18:37 | 55.43521 | 23.87601 | 15317 ft | 355 kts | 321° |
| 2026-04-30 18:38 | 55.45536 | 23.84997 | 15317 ft | 355 kts | 321° |
| 2026-04-30 18:38 | 55.47518 | 23.82430 | 15317 ft | 355 kts | 321° |
| 2026-04-30 18:38 | 55.49493 | 23.79869 | 15317 ft | 355 kts | 321° |
| 2026-04-30 18:38 | 55.51487 | 23.77280 | 15317 ft | 355 kts | 321° |
| 2026-04-30 18:39 | 55.53484 | 23.74686 | 15317 ft | 355 kts | 321° |
| 2026-04-30 18:39 | 55.55470 | 23.72101 | 15317 ft | 355 kts | 321° |
| 2026-04-30 18:39 | 55.57446 | 23.69525 | 15317 ft | 355 kts | 321° |
| 2026-04-30 18:39 | 55.59434 | 23.66930 | 15317 ft | 355 kts | 321° |
| 2026-04-30 18:40 | 55.61421 | 23.64335 | 15317 ft | 355 kts | 321° |
| 2026-04-30 18:40 | 55.63425 | 23.61713 | 15317 ft | 355 kts | 321° |
| 2026-04-30 18:40 | 55.65409 | 23.59114 | 15317 ft | 355 kts | 321° |
| 2026-04-30 18:40 | 55.67386 | 23.56522 | 15317 ft | 355 kts | 321° |
| 2026-04-30 18:41 | 55.69364 | 23.53923 | 15317 ft | 355 kts | 321° |
| 2026-04-30 18:41 | 55.71350 | 23.51311 | 15317 ft | 355 kts | 321° |
| 2026-04-30 18:41 | 55.73338 | 23.48695 | 15320 ft | 356 kts | 321° |
| 2026-04-30 18:41 | 55.75349 | 23.46043 | 15855 ft | 357 kts | 321° |
| 2026-04-30 18:42 | 55.77320 | 23.43441 | 16404 ft | 360 kts | 321° |
| 2026-04-30 18:42 | 55.81375 | 23.38076 | 17525 ft | 365 kts | 321° |
| 2026-04-30 18:42 | 55.83388 | 23.35409 | 18070 ft | 366 kts | 321° |
| 2026-04-30 18:45 | 56.04360 | 23.07398 | 22830 ft | 388 kts | 321° |
| 2026-04-30 18:45 | 56.06503 | 23.04514 | 23244 ft | 390 kts | 321° |
| 2026-04-30 18:45 | 56.08666 | 23.01599 | 23646 ft | 392 kts | 321° |
| 2026-04-30 18:46 | 56.10845 | 22.98658 | 24051 ft | 393 kts | 321° |
| 2026-04-30 18:46 | 56.13044 | 22.95687 | 24439 ft | 395 kts | 321° |
| 2026-04-30 18:46 | 56.15220 | 22.92742 | 24820 ft | 397 kts | 321° |
| 2026-04-30 18:46 | 56.17420 | 22.89761 | 25192 ft | 398 kts | 321° |
| 2026-04-30 18:47 | 56.19654 | 22.86729 | 25560 ft | 400 kts | 321° |
| 2026-04-30 18:47 | 56.21889 | 22.83691 | 25921 ft | 402 kts | 321° |
| 2026-04-30 18:47 | 56.24110 | 22.80668 | 26266 ft | 403 kts | 321° |
| 2026-04-30 18:47 | 56.26336 | 22.77634 | 26603 ft | 405 kts | 321° |
| 2026-04-30 18:48 | 56.28582 | 22.74567 | 26920 ft | 407 kts | 321° |
| 2026-04-30 18:48 | 56.30852 | 22.71465 | 27245 ft | 408 kts | 321° |
| 2026-04-30 18:48 | 56.33117 | 22.68364 | 27548 ft | 410 kts | 321° |
| 2026-04-30 18:48 | 56.35387 | 22.65238 | 27853 ft | 412 kts | 320° |
| 2026-04-30 18:49 | 56.37503 | 22.61842 | 28133 ft | 412 kts | 315° |
| 2026-04-30 18:49 | 56.39520 | 22.58180 | 28431 ft | 413 kts | 313° |
| 2026-04-30 18:49 | 56.41519 | 22.54407 | 28701 ft | 415 kts | 313° |
| 2026-04-30 18:49 | 56.43512 | 22.50594 | 28982 ft | 417 kts | 312° |
| 2026-04-30 18:50 | 56.45473 | 22.46801 | 29245 ft | 418 kts | 312° |
| 2026-04-30 18:50 | 56.47455 | 22.42940 | 29512 ft | 420 kts | 312° |
| 2026-04-30 18:50 | 56.49431 | 22.39065 | 29766 ft | 421 kts | 312° |
| 2026-04-30 18:50 | 56.51434 | 22.35120 | 30019 ft | 423 kts | 312° |
| 2026-04-30 18:51 | 56.53418 | 22.31193 | 30269 ft | 424 kts | 311° |
| 2026-04-30 18:51 | 56.55400 | 22.27255 | 30502 ft | 426 kts | 311° |
| 2026-04-30 18:51 | 56.57404 | 22.23260 | 30738 ft | 427 kts | 311° |
| 2026-04-30 18:51 | 56.59399 | 22.19276 | 30962 ft | 429 kts | 311° |
| 2026-04-30 18:52 | 56.61388 | 22.15296 | 31213 ft | 430 kts | 311° |
| 2026-04-30 18:52 | 56.63407 | 22.11248 | 31508 ft | 429 kts | 311° |
| 2026-04-30 18:52 | 56.65396 | 22.07249 | 31794 ft | 429 kts | 311° |
| 2026-04-30 18:52 | 56.67376 | 22.03264 | 32083 ft | 428 kts | 311° |
| 2026-04-30 18:53 | 56.69378 | 21.99227 | 32311 ft | 428 kts | 311° |
| 2026-04-30 18:53 | 56.73363 | 21.91167 | 32324 ft | 428 kts | 311° |
| 2026-04-30 18:54 | 56.77315 | 21.83146 | 32324 ft | 425 kts | 311° |
| 2026-04-30 18:54 | 56.81237 | 21.75157 | 32318 ft | 425 kts | 311° |
| 2026-04-30 18:55 | 56.85196 | 21.67067 | 32317 ft | 426 kts | 311° |
| 2026-04-30 18:55 | 56.91082 | 21.54988 | 32317 ft | 426 kts | 311° |
| 2026-04-30 18:56 | 56.96966 | 21.42850 | 32316 ft | 426 kts | 311° |
| 2026-04-30 18:57 | 57.02853 | 21.30639 | 32319 ft | 424 kts | 310° |
| 2026-04-30 18:57 | 57.06730 | 21.22555 | 32321 ft | 423 kts | 310° |
| 2026-04-30 18:58 | 57.12555 | 21.10364 | 32317 ft | 422 kts | 310° |
| 2026-04-30 18:59 | 57.18346 | 20.98184 | 32325 ft | 423 kts | 309° |
| 2026-04-30 19:00 | 57.26104 | 20.81777 | 32325 ft | 426 kts | 308° |
| 2026-04-30 19:01 | 57.33839 | 20.65308 | 32332 ft | 425 kts | 308° |
| 2026-04-30 19:02 | 57.39631 | 20.52895 | 32325 ft | 426 kts | 308° |
| 2026-04-30 19:03 | 57.47348 | 20.36257 | 32318 ft | 425 kts | 308° |
| 2026-04-30 19:04 | 57.55045 | 20.19529 | 32324 ft | 425 kts | 308° |
| 2026-04-30 19:04 | 57.58882 | 20.11148 | 32635 ft | 426 kts | 308° |
| 2026-04-30 19:05 | 57.62707 | 20.02767 | 33138 ft | 426 kts | 308° |
| 2026-04-30 19:05 | 57.66535 | 19.94351 | 33676 ft | 424 kts | 308° |
| 2026-04-30 19:06 | 57.70309 | 19.86019 | 34186 ft | 423 kts | 308° |
| 2026-04-30 19:06 | 57.72210 | 19.81810 | 34344 ft | 423 kts | 308° |
| 2026-04-30 19:06 | 57.76003 | 19.73395 | 34343 ft | 422 kts | 308° |
| 2026-04-30 19:07 | 57.81616 | 19.60876 | 34345 ft | 419 kts | 308° |
| 2026-04-30 19:08 | 57.89091 | 19.44108 | 34344 ft | 421 kts | 308° |
| 2026-04-30 19:09 | 57.94697 | 19.31460 | 34344 ft | 420 kts | 307° |
| 2026-04-30 19:09 | 57.98429 | 19.22992 | 34344 ft | 420 kts | 307° |
| 2026-04-30 19:10 | 58.05859 | 19.06054 | 34344 ft | 421 kts | 306° |
| 2026-04-30 19:11 | 58.11453 | 18.93230 | 34344 ft | 423 kts | 305° |
| 2026-04-30 19:12 | 58.14783 | 18.84178 | 34345 ft | 421 kts | 300° |
| 2026-04-30 19:12 | 58.17954 | 18.74881 | 34344 ft | 420 kts | 300° |
| 2026-04-30 19:13 | 58.24248 | 18.56290 | 34344 ft | 420 kts | 300° |
| 2026-04-30 19:14 | 58.27401 | 18.46925 | 34344 ft | 420 kts | 300° |
| 2026-04-30 19:14 | 58.30537 | 18.37574 | 34344 ft | 420 kts | 300° |
| 2026-04-30 19:15 | 58.33683 | 18.28152 | 34344 ft | 420 kts | 299° |
| 2026-04-30 19:15 | 58.38344 | 18.14108 | 34344 ft | 420 kts | 299° |
| 2026-04-30 19:16 | 58.41440 | 18.04737 | 34342 ft | 420 kts | 299° |
| 2026-04-30 19:17 | 58.46095 | 17.90577 | 34316 ft | 420 kts | 299° |
| 2026-04-30 19:17 | 58.50719 | 17.76433 | 34292 ft | 420 kts | 299° |
| 2026-04-30 19:18 | 58.55349 | 17.62188 | 34290 ft | 420 kts | 299° |
| 2026-04-30 19:19 | 58.58421 | 17.52689 | 34290 ft | 420 kts | 299° |
| 2026-04-30 19:19 | 58.63014 | 17.38419 | 34290 ft | 420 kts | 299° |
| 2026-04-30 19:20 | 58.65973 | 17.29178 | 34290 ft | 420 kts | 298° |
| 2026-04-30 19:21 | 58.70535 | 17.14844 | 34290 ft | 420 kts | 298° |
| 2026-04-30 19:22 | 58.76606 | 16.95632 | 34290 ft | 420 kts | 297° |
| 2026-04-30 19:23 | 58.85689 | 16.66605 | 34290 ft | 423 kts | 297° |
| 2026-04-30 19:24 | 58.90193 | 16.52085 | 34290 ft | 422 kts | 297° |
| 2026-04-30 19:25 | 58.97722 | 16.27601 | 34290 ft | 424 kts | 296° |
| 2026-04-30 19:26 | 59.03696 | 16.07972 | 34290 ft | 425 kts | 296° |
| 2026-04-30 19:27 | 59.08184 | 15.93120 | 34290 ft | 425 kts | 296° |
| 2026-04-30 19:28 | 59.12634 | 15.78305 | 34290 ft | 425 kts | 296° |
| 2026-04-30 19:29 | 59.18547 | 15.58473 | 34290 ft | 425 kts | 296° |
| 2026-04-30 19:30 | 59.24471 | 15.38440 | 34290 ft | 425 kts | 296° |
| 2026-04-30 19:31 | 59.30343 | 15.18393 | 34290 ft | 424 kts | 295° |
| 2026-04-30 19:31 | 59.34707 | 15.03376 | 34290 ft | 425 kts | 295° |
| 2026-04-30 19:32 | 59.37618 | 14.93305 | 34290 ft | 427 kts | 295° |
| 2026-04-30 19:32 | 59.40566 | 14.83061 | 34290 ft | 428 kts | 295° |
| 2026-04-30 19:33 | 59.43510 | 14.72792 | 34290 ft | 428 kts | 295° |
| 2026-04-30 19:33 | 59.46438 | 14.62533 | 34290 ft | 427 kts | 295° |
| 2026-04-30 19:34 | 59.49376 | 14.52193 | 34290 ft | 427 kts | 295° |
| 2026-04-30 19:35 | 59.53794 | 14.36555 | 34290 ft | 427 kts | 295° |
| 2026-04-30 19:35 | 59.56657 | 14.26362 | 34290 ft | 427 kts | 294° |
| 2026-04-30 19:36 | 59.59509 | 14.16154 | 34290 ft | 426 kts | 294° |
| 2026-04-30 19:36 | 59.63784 | 14.00768 | 34107 ft | 429 kts | 294° |
| 2026-04-30 19:37 | 59.65222 | 13.95574 | 33675 ft | 426 kts | 294° |
| 2026-04-30 19:37 | 59.66637 | 13.90451 | 32932 ft | 427 kts | 294° |
| 2026-04-30 19:37 | 59.68035 | 13.85376 | 32221 ft | 427 kts | 294° |
| 2026-04-30 19:37 | 59.69451 | 13.80226 | 31437 ft | 429 kts | 294° |
| 2026-04-30 19:38 | 59.70883 | 13.75005 | 30602 ft | 431 kts | 294° |
| 2026-04-30 19:38 | 59.72301 | 13.69822 | 29758 ft | 433 kts | 294° |
| 2026-04-30 19:38 | 59.73735 | 13.64567 | 28824 ft | 437 kts | 294° |
| 2026-04-30 19:38 | 59.75174 | 13.59287 | 28027 ft | 436 kts | 295° |
| 2026-04-30 19:39 | 59.76590 | 13.54082 | 27417 ft | 431 kts | 295° |
| 2026-04-30 19:39 | 59.78007 | 13.48860 | 26736 ft | 428 kts | 295° |
| 2026-04-30 19:39 | 59.79407 | 13.43692 | 26100 ft | 424 kts | 295° |
| 2026-04-30 19:39 | 59.80782 | 13.38603 | 25458 ft | 420 kts | 295° |
| 2026-04-30 19:40 | 59.82144 | 13.33547 | 24830 ft | 416 kts | 294° |
| 2026-04-30 19:40 | 59.83500 | 13.28500 | 24194 ft | 413 kts | 294° |
| 2026-04-30 19:40 | 59.84850 | 13.23464 | 23553 ft | 410 kts | 294° |
| 2026-04-30 19:40 | 59.86186 | 13.18469 | 22912 ft | 407 kts | 294° |
| 2026-04-30 19:41 | 59.87499 | 13.13545 | 22284 ft | 403 kts | 294° |
| 2026-04-30 19:41 | 59.88804 | 13.08644 | 21650 ft | 401 kts | 294° |
| 2026-04-30 19:41 | 59.90103 | 13.03751 | 21020 ft | 398 kts | 294° |
| 2026-04-30 19:41 | 59.91377 | 12.98943 | 20397 ft | 395 kts | 294° |
| 2026-04-30 19:42 | 59.92654 | 12.94115 | 19771 ft | 393 kts | 294° |
| 2026-04-30 19:42 | 59.93929 | 12.89279 | 19174 ft | 389 kts | 294° |
| 2026-04-30 19:42 | 59.95171 | 12.84561 | 18579 ft | 386 kts | 294° |
| 2026-04-30 19:42 | 59.96416 | 12.79816 | 17983 ft | 383 kts | 294° |
| 2026-04-30 19:43 | 59.97687 | 12.75164 | 17387 ft | 382 kts | 298° |
| 2026-04-30 19:43 | 59.99182 | 12.70779 | 16818 ft | 381 kts | 302° |
| 2026-04-30 19:43 | 60.00740 | 12.66482 | 16230 ft | 378 kts | 302° |
| 2026-04-30 19:44 | 60.03799 | 12.58086 | 15088 ft | 372 kts | 303° |
| 2026-04-30 19:44 | 60.05308 | 12.53938 | 14523 ft | 370 kts | 303° |
| 2026-04-30 19:44 | 60.06818 | 12.49775 | 13959 ft | 367 kts | 303° |
| 2026-04-30 19:44 | 60.08295 | 12.45699 | 13403 ft | 364 kts | 303° |
| 2026-04-30 19:45 | 60.09789 | 12.41567 | 12843 ft | 361 kts | 303° |
| 2026-04-30 19:45 | 60.10706 | 12.39028 | 12494 ft | 359 kts | 303° |
| 2026-04-30 19:45 | 60.12167 | 12.34974 | 11933 ft | 357 kts | 302° |
| 2026-04-30 19:45 | 60.13615 | 12.30951 | 11412 ft | 353 kts | 302° |
| 2026-04-30 19:46 | 60.15021 | 12.26924 | 10870 ft | 349 kts | 300° |
| 2026-04-30 19:46 | 60.16336 | 12.22859 | 10344 ft | 346 kts | 300° |
| 2026-04-30 19:46 | 60.17619 | 12.18829 | 9812 ft | 343 kts | 300° |
| 2026-04-30 19:46 | 60.18912 | 12.14754 | 9272 ft | 340 kts | 300° |
| 2026-04-30 19:47 | 60.20161 | 12.10812 | 8744 ft | 338 kts | 300° |
| 2026-04-30 19:47 | 60.21008 | 12.08135 | 8579 ft | 329 kts | 300° |
| 2026-04-30 19:47 | 60.22602 | 12.03097 | 8333 ft | 314 kts | 300° |
| 2026-04-30 19:47 | 60.23759 | 11.99427 | 8079 ft | 306 kts | 300° |
| 2026-04-30 19:48 | 60.24874 | 11.95888 | 7832 ft | 299 kts | 299° |
| 2026-04-30 19:48 | 60.25969 | 11.92404 | 7583 ft | 292 kts | 299° |
| 2026-04-30 19:48 | 60.27043 | 11.88982 | 7333 ft | 286 kts | 299° |
| 2026-04-30 19:48 | 60.28104 | 11.85595 | 7081 ft | 281 kts | 299° |
| 2026-04-30 19:49 | 60.29143 | 11.82273 | 6830 ft | 277 kts | 299° |
| 2026-04-30 19:49 | 60.31175 | 11.75761 | 6333 ft | 273 kts | 299° |
| 2026-04-30 19:49 | 60.32180 | 11.72528 | 6086 ft | 273 kts | 299° |
| 2026-04-30 19:50 | 60.33188 | 11.69283 | 5835 ft | 272 kts | 300° |
| 2026-04-30 19:50 | 60.34185 | 11.66070 | 5587 ft | 271 kts | 300° |
| 2026-04-30 19:50 | 60.35193 | 11.62817 | 5335 ft | 270 kts | 300° |
| 2026-04-30 19:50 | 60.36170 | 11.59659 | 5085 ft | 267 kts | 300° |
| 2026-04-30 19:51 | 60.37156 | 11.56467 | 4830 ft | 263 kts | 300° |
| 2026-04-30 19:51 | 60.38115 | 11.53360 | 4580 ft | 260 kts | 300° |
| 2026-04-30 19:51 | 60.39067 | 11.50271 | 4330 ft | 257 kts | 300° |
| 2026-04-30 19:51 | 60.39999 | 11.47240 | 4081 ft | 254 kts | 300° |
| 2026-04-30 19:52 | 60.40896 | 11.44224 | 3979 ft | 244 kts | 295° |
| 2026-04-30 19:52 | 60.41530 | 11.41166 | 3987 ft | 232 kts | 283° |
| 2026-04-30 19:52 | 60.41772 | 11.37969 | 3989 ft | 227 kts | 266° |
| 2026-04-30 19:52 | 60.41569 | 11.34830 | 3994 ft | 225 kts | 254° |
| 2026-04-30 19:53 | 60.41159 | 11.31749 | 3990 ft | 225 kts | 251° |
| 2026-04-30 19:53 | 60.40726 | 11.28699 | 3987 ft | 225 kts | 250° |
| 2026-04-30 19:53 | 60.40085 | 11.25839 | 3984 ft | 222 kts | 233° |
| 2026-04-30 19:53 | 60.39044 | 11.23600 | 3989 ft | 221 kts | 214° |
| 2026-04-30 19:54 | 60.37704 | 11.22228 | 4006 ft | 208 kts | 198° |
| 2026-04-30 19:54 | 60.36365 | 11.21485 | 3962 ft | 194 kts | 193° |
| 2026-04-30 19:54 | 60.35092 | 11.20885 | 3985 ft | 181 kts | 194° |
| 2026-04-30 19:54 | 60.33898 | 11.20268 | 3954 ft | 178 kts | 195° |
| 2026-04-30 19:55 | 60.32703 | 11.19576 | 3454 ft | 178 kts | 197° |
| 2026-04-30 19:55 | 60.31553 | 11.18897 | 3076 ft | 167 kts | 196° |
| 2026-04-30 19:55 | 60.30443 | 11.18245 | 2845 ft | 164 kts | 196° |
| 2026-04-30 19:55 | 60.29382 | 11.17625 | 2636 ft | 159 kts | 196° |
| 2026-04-30 19:56 | 60.28327 | 11.17011 | 2409 ft | 159 kts | 196° |
| 2026-04-30 19:56 | 60.27282 | 11.16403 | 2180 ft | 151 kts | 196° |
| 2026-04-30 19:56 | 60.26293 | 11.15829 | 1979 ft | 145 kts | 196° |
| 2026-04-30 19:56 | 60.25331 | 11.15277 | 1814 ft | 144 kts | 196° |
| 2026-04-30 19:57 | 60.24369 | 11.14737 | 1669 ft | 144 kts | 195° |
| 2026-04-30 19:57 | 60.23407 | 11.14195 | 1441 ft | 142 kts | 197° |
| 2026-04-30 19:57 | 60.22451 | 11.13589 | 1196 ft | 142 kts | 197° |
| 2026-04-30 19:57 | 60.21498 | 11.13049 | 1026 ft | 144 kts | 195° |
| 2026-04-30 19:58 | 60.20554 | 11.12513 | 855 ft | 143 kts | 196° |
| 2026-04-30 19:58 | 60.19620 | 11.11973 | 703 ft | 131 kts | 196° |
| 2026-04-30 19:58 | 60.18928 | 11.11563 | 703 ft | 78 kts | 196° |
| 2026-04-30 19:58 | 60.18590 | 11.11358 | 710 ft | 25 kts | 202° |
| 2026-04-30 19:59 | 60.18479 | 11.11251 | 709 ft | 15 kts | 210° |
| 2026-04-30 19:59 | 60.18428 | 11.11088 | 706 ft | 13 kts | 274° |
| 2026-04-30 19:59 | 60.18472 | 11.10832 | 704 ft | 11 kts | 289° |
| 2026-04-30 20:00 | 60.18559 | 11.10787 | 704 ft | 24 kts | 25° |
| 2026-04-30 20:00 | 60.18763 | 11.10914 | 703 ft | 35 kts | 15° |
| 2026-04-30 20:00 | 60.18998 | 11.11031 | 705 ft | 33 kts | 14° |
| 2026-04-30 20:00 | 60.19215 | 11.11153 | 704 ft | 31 kts | 17° |
| 2026-04-30 20:01 | 60.19434 | 11.11148 | 702 ft | 13 kts | 282° |
| 2026-04-30 20:01 | 60.19464 | 11.10906 | 697 ft | 12 kts | 285° |
| 2026-04-30 20:01 | 60.19480 | 11.10783 | 695 ft | 5 kts | 284° |
| 2026-04-30 20:02 | 60.19526 | 11.10473 | 691 ft | 16 kts | 285° |
| 2026-04-30 20:02 | 60.19517 | 11.10320 | 691 ft | 7 kts | 235° |
| 2026-04-30 20:03 | 60.19475 | 11.10253 | 692 ft | 4 kts | 195° |
| 2026-04-30 20:03 | 60.19460 | 11.10244 | 692 ft | 0 kts | 195° |